Time;durP1;ratioP1;P1;durP2;ratioP2;P2;SDS_P1;SDS_P2;PMS_P1;PMS_P2;Temp;Humidity;BMP_temperature;BMP_pressure;BME280_temperature;BME280_humidity;BME280_pressure;Samples;Min_cycle;Max_cycle;Signal;HPM_P1;HPM_P2
2023/04/21 00:02:33;;;;;;;;;;;;;;;7.36;89.61;100427.34;5035077;28;20495;-68
2023/04/21 00:05:41;;;;;;;;;;;;;;;7.42;88.87;100424.50;5034702;28;19975;-68
2023/04/21 00:08:44;;;;;;;;;;;;;;;7.45;88.95;100424.38;5035454;28;19979;-68
2023/04/21 00:11:46;;;;;;;;;;;;;;;7.46;88.66;100420.84;5035010;28;19924;-68
2023/04/21 00:14:49;;;;;;;;;;;;;;;7.48;89.03;100416.44;5034799;28;19963;-68
2023/04/21 00:17:52;;;;;;;;;;;;;;;7.51;88.72;100412.88;5035413;28;20439;-67
2023/04/21 00:20:55;;;;;;;;;;;;;;;7.53;88.69;100417.13;5034916;28;19928;-67
2023/04/21 00:23:58;;;;;;;;;;;;;;;7.55;88.87;100411.84;5034973;28;20404;-67
2023/04/21 00:27:02;;;;;;;;;;;;;;;7.53;88.96;100411.03;5034812;28;19979;-67
2023/04/21 00:30:05;;;;;;;;;;;;;;;7.52;88.82;100402.41;5022559;28;19927;-67
2023/04/21 00:33:08;;;;;;;;;;;;;;;7.53;88.84;100409.31;5022733;28;19924;-68
2023/04/21 00:36:11;;;;;;;;;;;;;;;7.55;89.09;100404.88;5034513;28;20394;-68
2023/04/21 00:39:14;;;;;;;;;;;;;;;7.52;89.25;100404.16;5034767;28;19974;-68
2023/04/21 00:42:17;;;;;;;;;;;;;;;7.52;89.13;100399.78;5034075;28;19924;-68
2023/04/21 00:45:20;;;;;;;;;;;;;;;7.54;89.31;100402.34;5035076;28;20388;-68
2023/04/21 00:48:23;;;;;;;;;;;;;;;7.58;89.54;100391.75;5034874;28;20396;-67
2023/04/21 00:51:27;;;;;;;;;;;;;;;7.64;88.88;100407.09;5022414;28;19924;-68
2023/04/21 00:54:30;;;;;;;;;;;;;;;7.57;88.91;100405.66;5022551;28;20396;-68
2023/04/21 00:57:34;;;;;;;;;;;;;;;7.56;89.13;100403.13;5034567;28;19928;-67
2023/04/21 01:00:38;;;;;;;;;;;;;;;7.57;89.26;100410.03;5033869;28;19932;-67
2023/04/21 01:03:41;;;;;;;;;;;;;;;7.56;89.75;100401.38;5021851;28;19924;-67
2023/04/21 01:06:45;;;;;;;;;;;;;;;7.54;89.77;100395.38;5034486;28;19924;-67
2023/04/21 01:09:49;;;;;;;;;;;;;;;7.56;89.75;100401.38;5034402;28;20009;-68
2023/04/21 01:12:52;;;;;;;;;;;;;;;7.57;89.54;100405.66;5021245;28;19995;-68
2023/04/21 01:15:55;;;;;;;;;;;;;;;7.53;89.59;100406.72;5033671;28;20399;-68
2023/04/21 01:18:59;;;;;;;;;;;;;;;7.58;89.84;100407.34;5033758;28;20027;-67
2023/04/21 01:22:03;;;;;;;;;;;;;;;7.59;89.86;100413.41;5021450;28;20088;-67
2023/04/21 01:25:07;;;;;;;;;;;;;;;7.64;89.97;100417.50;5021025;28;20400;-68
2023/04/21 01:28:12;;;;;;;;;;;;;;;7.66;90.36;100420.91;5033737;28;20020;-67
2023/04/21 01:31:17;;;;;;;;;;;;;;;7.63;90.06;100418.44;5034004;28;19924;-67
2023/04/21 01:34:20;;;;;;;;;;;;;;;7.52;90.67;100406.75;5033162;28;19924;-67
2023/04/21 01:37:25;;;;;;;;;;;;;;;7.60;91.03;100409.91;5033864;28;20340;-68
2023/04/21 01:40:28;;;;;;;;;;;;;;;7.71;90.52;100409.44;5032257;28;19933;-68
2023/04/21 01:43:31;;;;;;;;;;;;;;;7.75;90.27;100408.41;5019611;28;19924;-68
2023/04/21 01:46:34;;;;;;;;;;;;;;;7.75;90.06;100404.03;5019886;28;19928;-67
2023/04/21 01:49:37;;;;;;;;;;;;;;;7.75;90.25;100398.81;5019665;28;20443;-67
2023/04/21 01:52:40;;;;;;;;;;;;;;;7.73;90.05;100399.81;5020005;28;20019;-68
2023/04/21 01:55:43;;;;;;;;;;;;;;;7.72;90.32;100398.94;5032091;28;20077;-67
2023/04/21 01:58:46;;;;;;;;;;;;;;;7.73;90.25;100399.81;5020239;28;19927;-67
2023/04/21 02:01:49;;;;;;;;;;;;;;;7.73;90.14;100402.44;5020396;28;19927;-67
2023/04/21 02:04:52;;;;;;;;;;;;;;;7.73;90.21;100405.03;5020979;28;19971;-67
2023/04/21 02:07:57;;;;;;;;;;;;;;;7.74;90.23;100404.09;5033569;28;20415;-67
2023/04/21 02:11:00;;;;;;;;;;;;;;;7.72;90.32;100398.09;5020925;28;19951;-67
2023/04/21 02:14:03;;;;;;;;;;;;;;;7.71;90.55;100409.44;5021077;28;19980;-67
2023/04/21 02:17:06;;;;;;;;;;;;;;;7.68;90.37;100406.03;5033235;28;19923;-67
2023/04/21 02:20:11;;;;;;;;;;;;;;;7.66;90.41;100405.28;5032982;28;19928;-67
2023/04/21 02:23:15;;;;;;;;;;;;;;;7.69;89.95;100409.53;5033134;28;19963;-67
2023/04/21 02:26:18;;;;;;;;;;;;;;;7.65;90.30;100402.72;5032939;28;19970;-67
2023/04/21 02:29:21;;;;;;;;;;;;;;;7.67;90.19;100404.38;5031180;28;19928;-67
2023/04/21 02:32:24;;;;;;;;;;;;;;;7.64;90.38;100406.25;5020725;28;20435;-67
2023/04/21 02:35:30;;;;;;;;;;;;;;;7.59;90.47;100398.63;5033076;28;19924;-67
2023/04/21 02:38:36;;;;;;;;;;;;;;;7.61;90.40;100402.03;5032868;28;19928;-69
2023/04/21 02:41:39;;;;;;;;;;;;;;;7.63;90.27;100400.22;5033106;28;19924;-68
2023/04/21 02:44:42;;;;;;;;;;;;;;;7.61;90.65;100402.03;5019939;28;19924;-68
2023/04/21 02:47:45;;;;;;;;;;;;;;;7.66;90.51;100402.69;5032757;28;20321;-68
2023/04/21 02:50:49;;;;;;;;;;;;;;;7.64;90.16;100401.06;5033082;28;19930;-68
2023/04/21 02:53:52;;;;;;;;;;;;;;;7.65;90.12;100415.75;5032896;28;20017;-68
2023/04/21 02:56:55;;;;;;;;;;;;;;;7.62;90.05;100408.06;5032620;28;19943;-68
2023/04/21 02:59:58;;;;;;;;;;;;;;;7.57;90.18;100407.44;5020124;28;19979;-68
2023/04/21 03:03:00;;;;;;;;;;;;;;;7.56;90.31;100409.19;5032249;28;19936;-68
2023/04/21 03:06:04;;;;;;;;;;;;;;;7.56;89.96;100408.31;5033417;28;19923;-68
2023/04/21 03:09:07;;;;;;;;;;;;;;;7.58;90.33;100415.16;5050032;28;19958;-68
2023/04/21 03:12:11;;;;;;;;;;;;;;;7.59;90.01;100410.78;5061028;28;19924;-69
2023/04/21 03:15:14;;;;;;;;;;;;;;;7.55;90.22;100415.28;5072848;28;19978;-68
2023/04/21 03:18:16;;;;;;;;;;;;;;;7.59;90.31;100414.25;5060361;28;19943;-69
2023/04/21 03:21:20;;;;;;;;;;;;;;;7.60;90.34;100402.09;5060432;28;19928;-68
2023/04/21 03:24:24;;;;;;;;;;;;;;;7.57;90.58;100403.06;5071683;28;19962;-68
2023/04/21 03:27:27;;;;;;;;;;;;;;;7.57;90.55;100400.47;5045614;28;19924;-69
2023/04/21 03:30:30;;;;;;;;;;;;;;;7.51;90.57;100405.91;5058788;28;20303;-68
2023/04/21 03:33:32;;;;;;;;;;;;;;;7.52;90.54;100397.19;5048712;28;19927;-68
2023/04/21 03:36:35;;;;;;;;;;;;;;;7.56;90.14;100404.00;5049303;28;19923;-69
2023/04/21 03:39:38;;;;;;;;;;;;;;;7.55;90.26;100404.88;5048013;28;20020;-69
2023/04/21 03:42:43;;;;;;;;;;;;;;;7.61;90.48;100409.81;5053295;28;19966;-69
2023/04/21 03:45:46;;;;;;;;;;;;;;;7.66;90.25;100409.66;5039876;28;20341;-69
2023/04/21 03:48:49;;;;;;;;;;;;;;;7.65;89.82;100410.53;5051901;28;20281;-69
2023/04/21 03:51:52;;;;;;;;;;;;;;;7.66;89.82;100407.03;5063119;28;20441;-69
2023/04/21 03:54:55;;;;;;;;;;;;;;;7.64;90.06;100411.47;5063372;28;19962;-68
2023/04/21 03:57:58;;;;;;;;;;;;;;;7.62;90.00;100405.47;5024453;28;20447;-68
2023/04/21 04:01:10;;;;;;;;;;;;;;;7.55;90.54;100406.63;5025129;28;19936;-68
2023/04/21 04:04:12;;;;;;;;;;;;;;;7.59;90.45;100414.25;5023247;28;19932;-68
2023/04/21 04:07:16;;;;;;;;;;;;;;;7.56;90.71;100409.19;5023526;28;19970;-70
2023/04/21 04:10:20;;;;;;;;;;;;;;;7.57;90.15;100410.03;5034122;28;19924;-69
2023/04/21 04:13:25;;;;;;;;;;;;;;;7.54;90.03;100411.00;5035598;28;19924;-69
2023/04/21 04:16:28;;;;;;;;;;;;;;;7.53;90.03;100411.91;5035612;28;19924;-68
2023/04/21 04:19:56;;;;;;;;;;;;;;;7.46;90.38;100398.28;5034724;28;19947;-68
2023/04/21 04:22:59;;;;;;;;;;;;;;;7.45;90.30;100407.00;5035426;28;19970;-67
2023/04/21 04:26:04;;;;;;;;;;;;;;;7.45;89.83;100406.16;5035452;28;19928;-67
2023/04/21 04:29:10;;;;;;;;;;;;;;;7.47;89.88;100404.38;5035427;28;19924;-67
2023/04/21 04:32:14;;;;;;;;;;;;;;;7.43;89.70;100390.63;5035183;28;20440;-68
2023/04/21 04:35:16;;;;;;;;;;;;;;;7.40;89.59;100401.16;5035295;28;20491;-67
2023/04/21 04:38:23;;;;;;;;;;;;;;;7.44;89.48;100404.50;5035092;28;19924;-68
2023/04/21 04:42:16;;;;;;;;;;;;;;;7.46;89.69;100413.06;5035255;28;19928;-67
2023/04/21 04:45:21;;;;;;;;;;;;;;;7.41;89.50;100410.66;5035473;28;19924;-67
2023/04/21 04:48:24;;;;;;;;;;;;;;;7.40;89.98;100408.09;5035135;28;19928;-67
2023/04/21 04:51:27;;;;;;;;;;;;;;;7.40;90.09;100402.91;5034569;28;19978;-67
2023/04/21 04:54:31;;;;;;;;;;;;;;;7.39;89.79;100403.81;5033936;28;19924;-67
2023/04/21 04:57:33;;;;;;;;;;;;;;;7.36;89.91;100394.38;5054771;28;20006;-68
2023/04/21 05:00:36;;;;;;;;;;;;;;;7.39;89.63;100406.41;5054578;28;19943;-67
2023/04/21 05:03:40;;;;;;;;;;;;;;;7.43;89.46;100402.78;5055150;28;19960;-67
2023/04/21 05:06:43;;;;;;;;;;;;;;;7.42;89.60;100407.13;5054846;28;20281;-67
2023/04/21 05:09:46;;;;;;;;;;;;;;;7.41;89.63;100408.06;5054520;28;19962;-67
2023/04/21 05:12:48;;;;;;;;;;;;;;;7.39;89.23;100415.06;5054608;28;20019;-67
2023/04/21 05:16:00;;;;;;;;;;;;;;;7.34;89.51;100418.75;5053699;28;20009;-68
2023/04/21 05:19:03;;;;;;;;;;;;;;;7.28;89.75;100422.47;5054404;28;19928;-67
2023/04/21 05:22:06;;;;;;;;;;;;;;;7.27;89.63;100425.13;5054773;28;20339;-67
2023/04/21 05:25:10;;;;;;;;;;;;;;;7.25;89.57;100419.16;5054129;28;19924;-67
2023/04/21 05:28:14;;;;;;;;;;;;;;;7.28;89.63;100424.22;5054269;28;19927;-67
2023/04/21 05:31:17;;;;;;;;;;;;;;;7.26;89.30;100421.69;5054356;28;19924;-67
2023/04/21 05:34:20;;;;;;;;;;;;;;;7.15;89.58;100424.72;5054120;28;19982;-67
2023/04/21 05:37:23;;;;;;;;;;;;;;;7.20;89.43;100430.56;5054082;28;19927;-67
2023/04/21 05:40:27;;;;;;;;;;;;;;;7.25;89.01;100434.75;5053781;28;19931;-69
2023/04/21 05:43:34;;;;;;;;;;;;;;;7.25;89.55;100434.75;5054163;28;19970;-67
2023/04/21 05:46:37;;;;;;;;;;;;;;;7.26;89.61;100418.22;5053864;28;19939;-67
2023/04/21 05:49:41;;;;;;;;;;;;;;;7.25;89.50;100419.16;5053707;28;20519;-67
2023/04/21 05:52:43;;;;;;;;;;;;;;;7.28;89.10;100419.03;5053754;28;19978;-68
2023/04/21 05:55:46;;;;;;;;;;;;;;;7.36;89.11;100409.16;5059032;28;19989;-68
2023/04/21 05:58:49;;;;;;;;;;;;;;;7.36;88.40;100402.19;5073158;28;20084;-69
2023/04/21 06:01:53;;;;;;;;;;;;;;;7.35;88.53;100420.47;5073425;28;19975;-68
2023/04/21 06:04:56;;;;;;;;;;;;;;;7.33;88.79;100417.06;5073355;28;20070;-68
2023/04/21 06:07:59;;;;;;;;;;;;;;;7.28;89.11;100411.22;5073481;28;20043;-69
2023/04/21 06:11:02;;;;;;;;;;;;;;;7.30;89.22;100412.84;5073299;28;19924;-69
2023/04/21 06:14:05;;;;;;;;;;;;;;;7.26;88.88;100406.06;5073256;28;19922;-69
2023/04/21 06:17:09;;;;;;;;;;;;;;;7.30;88.79;100410.22;5073081;28;19924;-68
2023/04/21 06:20:12;;;;;;;;;;;;;;;7.35;89.25;100410.91;5073084;28;19978;-69
2023/04/21 06:23:16;;;;;;;;;;;;;;;7.38;89.01;100404.75;5073113;28;19923;-69
2023/04/21 06:26:19;;;;;;;;;;;;;;;7.40;88.91;100408.97;5072766;28;20288;-70
2023/04/21 06:29:22;;;;;;;;;;;;;;;7.39;88.94;100417.66;5032935;28;20404;-68
2023/04/21 06:32:25;;;;;;;;;;;;;;;7.37;89.07;100414.31;5032902;28;19932;-68
2023/04/21 06:35:29;;;;;;;;;;;;;;;7.38;89.27;100421.19;5033154;28;19939;-70
2023/04/21 06:38:32;;;;;;;;;;;;;;;7.36;89.62;100412.59;5033089;28;19975;-69
2023/04/21 06:41:35;;;;;;;;;;;;;;;7.45;89.44;100421.78;5020873;28;19944;-70
2023/04/21 06:44:39;;;;;;;;;;;;;;;7.53;89.93;100424.94;5033226;28;20448;-70
2023/04/21 06:47:42;;;;;;;;;;;;;;;7.61;90.14;100419.41;5061720;28;20474;-70
2023/04/21 06:50:46;;;;;;;;;;;;;;;7.65;89.88;100419.19;5073201;28;20284;-70
2023/04/21 06:53:49;;;;;;;;;;;;;;;7.68;89.49;100426.03;5059765;28;19940;-70
2023/04/21 06:56:53;;;;;;;;;;;;;;;7.71;89.81;100423.28;5072688;28;20347;-70
2023/04/21 06:59:56;;;;;;;;;;;;;;;7.75;89.65;100424.00;5072763;28;19947;-70
2023/04/21 07:02:59;;;;;;;;;;;;;;;7.77;89.84;100411.78;5072958;28;19923;-69
2023/04/21 07:06:03;;;;;;;;;;;;;;;7.76;90.14;100417.91;5060304;28;20386;-69
2023/04/21 07:09:06;;;;;;;;;;;;;;;7.75;89.49;100422.25;5073101;28;20046;-69
2023/04/21 07:12:10;;;;;;;;;;;;;;;7.78;89.43;100429.09;5073035;28;20300;-69
2023/04/21 07:15:13;;;;;;;;;;;;;;;7.78;89.91;100422.13;5073675;28;19983;-69
2023/04/21 07:18:17;;;;;;;;;;;;;;;7.74;89.74;100420.56;5064278;28;20057;-68
2023/04/21 07:21:21;;;;;;;;;;;;;;;7.80;90.08;100420.31;5076426;28;19928;-69
2023/04/21 07:24:24;;;;;;;;;;;;;;;7.85;89.71;100420.13;5076486;28;19969;-69
2023/04/21 07:27:29;;;;;;;;;;;;;;;7.84;89.35;100408.84;5076279;28;20391;-70
2023/04/21 07:30:35;;;;;;;;;;;;;;;7.84;89.58;100408.00;5076592;28;19923;-70
2023/04/21 07:33:38;;;;;;;;;;;;;;;7.89;89.67;100411.28;5076395;28;20439;-70
2023/04/21 07:36:41;;;;;;;;;;;;;;;8.00;89.27;100416.84;5076341;28;19994;-69
2023/04/21 07:39:44;;;;;;;;;;;;;;;8.06;89.34;100419.19;5075910;28;19967;-70
2023/04/21 07:42:47;;;;;;;;;;;;;;;8.08;89.25;100424.34;5076222;28;19924;-69
2023/04/21 07:45:51;;;;;;;;;;;;;;;8.01;89.99;100425.50;5075923;28;19969;-70
2023/04/21 07:48:55;;;;;;;;;;;;;;;7.97;89.99;100424.78;5075852;28;20011;-69
2023/04/21 07:51:58;;;;;;;;;;;;;;;8.01;90.09;100420.28;5075622;28;19924;-69
2023/04/21 07:55:01;;;;;;;;;;;;;;;8.04;90.73;100412.34;5075925;28;20000;-71
2023/04/21 07:58:04;;;;;;;;;;;;;;;8.08;91.34;100422.56;5076049;28;19943;-70
2023/04/21 08:01:07;;;;;;;;;;;;;;;8.07;91.87;100420.91;5075974;28;20296;-69
2023/04/21 08:04:10;;;;;;;;;;;;;;;8.15;91.51;100426.59;5075901;28;20395;-72
2023/04/21 08:07:14;;;;;;;;;;;;;;;8.22;91.59;100424.56;5075744;28;19978;-71
2023/04/21 08:10:17;;;;;;;;;;;;;;;8.33;90.47;100418.91;5075667;28;19969;-69
2023/04/21 08:13:23;;;;;;;;;;;;;;;8.30;89.78;100416.44;5075441;28;19969;-69
2023/04/21 08:16:27;;;;;;;;;;;;;;;8.30;90.28;100416.44;5075474;28;19954;-69
2023/04/21 08:19:31;;;;;;;;;;;;;;;8.40;90.18;100422.09;5075258;28;20036;-68
2023/04/21 08:22:35;;;;;;;;;;;;;;;8.47;89.45;100421.75;5075024;28;19981;-69
2023/04/21 08:25:38;;;;;;;;;;;;;;;8.60;89.70;100420.28;5075381;28;19923;-70
2023/04/21 08:28:41;;;;;;;;;;;;;;;8.85;89.13;100413.94;5075366;28;20399;-68
2023/04/21 08:31:43;;;;;;;;;;;;;;;8.95;89.46;100409.97;5035020;28;19924;-72
2023/04/21 08:34:47;;;;;;;;;;;;;;;8.96;88.60;100409.03;5035046;28;19939;-69
2023/04/21 08:37:50;;;;;;;;;;;;;;;8.96;89.06;100411.66;5034845;28;20012;-67
2023/04/21 08:40:55;;;;;;;;;;;;;;;8.91;89.06;100411.03;5034880;28;19928;-67
2023/04/21 08:43:58;;;;;;;;;;;;;;;8.92;87.99;100404.06;5033417;28;19932;-67
2023/04/21 08:47:02;;;;;;;;;;;;;;;8.97;88.12;100407.31;5034733;28;20389;-67
2023/04/21 08:50:11;;;;;;;;;;;;;;;8.94;88.55;100408.28;5034875;28;20051;-67
2023/04/21 08:53:18;;;;;;;;;;;;;;;8.91;88.41;100403.22;5034571;28;19971;-67
2023/04/21 08:56:23;;;;;;;;;;;;;;;9.04;89.30;100399.09;5034460;28;20071;-69
2023/04/21 08:59:26;;;;;;;;;;;;;;;9.18;88.91;100394.97;5034474;28;19943;-68
2023/04/21 09:02:31;;;;;;;;;;;;;;;9.37;89.02;100403.59;5033898;28;19971;-68
2023/04/21 09:09:51;;;;;;;;;;;;;;;9.58;88.48;100406.09;5063710;28;19923;-68
2023/04/21 09:12:55;;;;;;;;;;;;;;;9.71;88.40;100394.09;5060607;28;19924;-68
2023/04/21 09:16:00;;;;;;;;;;;;;;;9.69;86.80;100390.72;5061190;28;20384;-67
2023/04/21 09:19:13;;;;;;;;;;;;;;;9.72;87.98;100391.41;5050237;28;20399;-68
2023/04/21 09:22:16;;;;;;;;;;;;;;;9.81;87.53;100384.88;5060378;28;19971;-68
2023/04/21 09:25:19;;;;;;;;;;;;;;;9.86;87.48;100382.00;5048954;28;20008;-68
2023/04/21 09:28:30;;;;;;;;;;;;;;;9.93;87.72;100383.41;5062116;28;19974;-68
2023/04/21 09:31:34;;;;;;;;;;;;;;;10.05;89.04;100371.44;5059491;28;19978;-68
2023/04/21 09:34:40;;;;;;;;;;;;;;;10.15;89.16;100368.28;5060346;28;20460;-68
2023/04/21 09:37:43;;;;;;;;;;;;;;;10.25;89.04;100368.63;5061577;28;19928;-68
2023/04/21 09:40:57;;;;;;;;;;;;;;;10.34;88.77;100362.97;5062576;28;19931;-68
2023/04/21 09:44:08;;;;;;;;;;;;;;;10.39;88.28;100352.25;5060862;28;19970;-67
2023/04/21 09:47:13;;;;;;;;;;;;;;;10.38;86.97;100351.41;5058507;28;19923;-68
2023/04/21 09:50:16;;;;;;;;;;;;;;;10.44;87.44;100347.63;5057618;28;20285;-68
2023/04/21 09:53:21;;;;;;;;;;;;;;;10.39;87.10;100350.47;5059420;28;20284;-68
2023/04/21 09:56:48;;;;;;;;;;;;;;;10.63;88.64;100342.22;5070404;28;20400;-69
2023/04/21 09:59:58;;;;;;;;;;;;;;;10.78;88.92;100340.50;5072764;28;20303;-68
2023/04/21 10:03:04;;;;;;;;;;;;;;;10.88;87.71;100325.97;5072707;28;19950;-68
2023/04/21 10:06:07;;;;;;;;;;;;;;;10.90;86.09;100335.44;5069603;28;20396;-69
2023/04/21 10:09:12;;;;;;;;;;;;;;;11.07;87.56;100328.38;5072767;28;19923;-68
2023/04/21 10:12:16;;;;;;;;;;;;;;;11.11;87.43;100322.06;5066549;28;20433;-68
2023/04/21 10:15:30;;;;;;;;;;;;;;;11.18;87.37;100328.63;5072814;28;20005;-68
2023/04/21 10:18:35;;;;;;;;;;;;;;;11.29;87.28;100323.59;5073074;28;19924;-69
2023/04/21 10:21:38;;;;;;;;;;;;;;;11.32;87.09;100326.03;5072395;28;19931;-70
2023/04/21 10:24:41;;;;;;;;;;;;;;;11.36;87.59;100314.47;5072759;28;20007;-69
2023/04/21 10:27:44;;;;;;;;;;;;;;;11.41;86.74;100315.03;5073121;28;19923;-70
2023/04/21 10:30:47;;;;;;;;;;;;;;;11.30;84.55;100306.16;5073029;28;19923;-72
2023/04/21 10:34:05;;;;;;;;;;;;;;;11.36;85.53;100305.78;5072925;28;19923;-73
2023/04/21 10:37:11;;;;;;;;;;;;;;;11.47;85.72;100307.75;5072742;28;20117;-71
2023/04/21 10:40:29;;;;;;;;;;;;;;;11.62;86.86;100312.94;5072756;28;20029;-70
2023/04/21 10:43:45;;;;;;;;;;;;;;;11.68;85.54;100306.47;5073030;28;19927;-72
2023/04/21 10:46:49;;;;;;;;;;;;;;;11.82;85.40;100298.63;5072781;28;20446;-68
2023/04/21 10:49:54;;;;;;;;;;;;;;;11.86;84.81;100300.13;5073439;28;20013;-70
2023/04/21 10:52:58;;;;;;;;;;;;;;;11.99;84.22;100294.16;5077085;28;19939;-70
2023/04/21 10:56:03;;;;;;;;;;;;;;;12.16;83.74;100288.72;5064438;28;19927;-69
2023/04/21 10:59:06;;;;;;;;;;;;;;;12.28;83.28;100285.31;5076831;28;19931;-69
2023/04/21 11:02:11;;;;;;;;;;;;;;;12.39;83.78;100275.94;5076780;28;19924;-70
2023/04/21 11:05:14;;;;;;;;;;;;;;;12.47;82.68;100271.03;5076588;28;20015;-70
2023/04/21 11:08:17;;;;;;;;;;;;;;;12.65;81.87;100267.22;5076463;28;20410;-70
2023/04/21 11:15:13;;;;;;;;;;;;;;;12.93;81.46;100265.41;5075432;28;19928;-69
2023/04/21 11:18:16;;;;;;;;;;;;;;;13.01;80.37;100258.69;5076316;28;20050;-70
2023/04/21 11:21:23;;;;;;;;;;;;;;;13.04;78.66;100252.41;5076141;28;19932;-70
2023/04/21 11:24:26;;;;;;;;;;;;;;;13.12;79.19;100246.66;5074831;28;19945;-69
2023/04/21 11:27:30;;;;;;;;;;;;;;;13.28;78.63;100244.72;5075164;28;20403;-69
2023/04/21 11:30:33;;;;;;;;;;;;;;;13.41;77.03;100231.59;5076199;28;19928;-70
2023/04/21 11:33:37;;;;;;;;;;;;;;;13.49;75.50;100218.75;5075903;28;19969;-69
2023/04/21 11:37:03;;;;;;;;;;;;;;;13.64;77.34;100214.22;5066386;28;19977;-68
2023/04/21 11:40:07;;;;;;;;;;;;;;;13.83;77.58;100213.78;5075692;28;19978;-68
2023/04/21 11:43:10;;;;;;;;;;;;;;;13.90;76.32;100212.38;5075712;28;19923;-69
2023/04/21 11:46:24;;;;;;;;;;;;;;;13.99;74.17;100211.72;5075385;28;19939;-70
2023/04/21 11:49:29;;;;;;;;;;;;;;;14.06;72.28;100207.69;5075667;28;19923;-69
2023/04/21 11:52:33;;;;;;;;;;;;;;;14.24;72.33;100202.09;5075422;28;19923;-70
2023/04/21 11:55:36;;;;;;;;;;;;;;;14.61;71.77;100202.88;5063072;28;19927;-70
2023/04/21 11:58:39;;;;;;;;;;;;;;;14.79;71.44;100203.28;5075739;28;19939;-69
2023/04/21 12:01:42;;;;;;;;;;;;;;;14.86;71.13;100200.06;5075093;28;19932;-69
2023/04/21 12:04:55;;;;;;;;;;;;;;;14.86;70.46;100197.44;5075453;28;19923;-69
2023/04/21 12:07:58;;;;;;;;;;;;;;;15.00;69.84;100185.88;5075311;28;19969;-70
2023/04/21 12:11:01;;;;;;;;;;;;;;;15.09;69.96;100179.06;5075409;28;19998;-71
2023/04/21 12:14:06;;;;;;;;;;;;;;;15.22;70.29;100185.09;5075230;28;19970;-71
2023/04/21 12:17:10;;;;;;;;;;;;;;;15.49;67.72;100176.81;5075165;28;20387;-71
2023/04/21 12:20:22;;;;;;;;;;;;;;;15.54;63.88;100169.41;5075063;28;19974;-72
2023/04/21 12:23:26;;;;;;;;;;;;;;;15.61;65.11;100175.03;5074892;28;19970;-69
2023/04/21 12:26:31;;;;;;;;;;;;;;;15.68;63.01;100185.97;5075034;28;19923;-70
2023/04/21 12:29:36;;;;;;;;;;;;;;;15.76;63.00;100178.25;5074993;28;19935;-70
2023/04/21 12:32:39;;;;;;;;;;;;;;;15.89;62.43;100165.81;5062639;28;20419;-69
2023/04/21 12:35:43;;;;;;;;;;;;;;;16.08;62.14;100166.94;5074882;28;19966;-70
2023/04/21 12:38:46;;;;;;;;;;;;;;;16.09;62.25;100169.47;5058673;28;19967;-69
2023/04/21 12:41:51;;;;;;;;;;;;;;;16.14;61.04;100158.53;5055034;28;19928;-69
2023/04/21 12:44:55;;;;;;;;;;;;;;;16.03;59.72;100154.97;5042237;28;19962;-69
2023/04/21 12:47:58;;;;;;;;;;;;;;;15.99;59.82;100158.81;5041894;28;19932;-69
2023/04/21 12:51:27;;;;;;;;;;;;;;;;;;;;;
2023/04/21 12:54:56;;;;;;;;;;;;;;;15.94;59.76;100153.06;5052631;28;20440;-69
2023/04/21 12:57:58;;;;;;;;;;;;;;;16.12;59.29;100149.94;5064219;28;19947;-68
2023/04/21 13:01:02;;;;;;;;;;;;;;;16.14;58.38;100147.97;5033564;28;20022;-69
2023/04/21 13:04:06;;;;;;;;;;;;;;;16.42;58.35;100141.28;5034057;28;19928;-69
2023/04/21 13:07:09;;;;;;;;;;;;;;;16.66;57.04;100152.44;5033930;28;19971;-70
2023/04/21 13:10:12;;;;;;;;;;;;;;;16.64;56.90;100148.25;5033976;28;19924;-69
2023/04/21 13:13:16;;;;;;;;;;;;;;;17.10;56.45;100136.47;5043398;28;19962;-69
2023/04/21 13:16:19;;;;;;;;;;;;;;;17.51;55.32;100129.41;5074130;28;20292;-69
2023/04/21 13:19:23;;;;;;;;;;;;;;;17.93;54.93;100137.19;5072926;28;20396;-69
2023/04/21 13:22:26;;;;;;;;;;;;;;;18.14;53.07;100135.25;5073660;28;19943;-69
2023/04/21 13:25:31;;;;;;;;;;;;;;;18.45;52.43;100124.53;5073803;28;20346;-70
2023/04/21 13:28:35;;;;;;;;;;;;;;;18.93;51.82;100124.47;5073598;28;20486;-70
2023/04/21 13:31:38;;;;;;;;;;;;;;;18.74;49.20;100106.81;5074107;28;19928;-70
2023/04/21 13:34:41;;;;;;;;;;;;;;;19.25;50.56;100108.19;5073718;28;19923;-70
2023/04/21 13:37:45;;;;;;;;;;;;;;;19.75;48.56;100101.69;5073693;28;19974;-70
2023/04/21 13:40:49;;;;;;;;;;;;;;;19.78;47.50;100090.75;5073467;28;19927;-70
2023/04/21 13:43:53;;;;;;;;;;;;;;;20.32;47.01;100088.09;5073574;28;19927;-70
2023/04/21 13:46:57;;;;;;;;;;;;;;;20.98;45.10;100078.78;5073801;28;19940;-71
2023/04/21 13:50:00;;;;;;;;;;;;;;;21.03;44.46;100068.50;5073962;28;19959;-71
2023/04/21 13:53:03;;;;;;;;;;;;;;;21.33;43.56;100067.13;5071227;28;19986;-68
2023/04/21 13:56:06;;;;;;;;;;;;;;;21.84;41.98;100065.28;5072980;28;20327;-68
2023/04/21 13:59:10;;;;;;;;;;;;;;;23.57;38.23;100053.31;5073395;28;20287;-70
2023/04/21 14:02:13;;;;;;;;;;;;;;;26.20;35.90;100043.06;5072768;28;19923;-70
2023/04/21 14:05:18;;;;;;;;;;;;;;;28.32;30.78;100036.94;5070713;28;20216;-70
2023/04/21 14:08:21;;;;;;;;;;;;;;;29.39;27.03;100027.56;5072629;28;20039;-70
2023/04/21 14:11:24;;;;;;;;;;;;;;;28.91;27.64;100027.13;5072878;28;19927;-71
2023/04/21 14:14:27;;;;;;;;;;;;;;;28.98;27.57;100036.00;5073261;28;19970;-71
2023/04/21 14:21:25;;;;;;;;;;;;;;;28.17;27.17;100012.94;5072312;28;19936;-69
2023/04/21 14:24:29;;;;;;;;;;;;;;;30.58;26.28;100014.25;5072640;28;20007;-71
2023/04/21 14:27:32;;;;;;;;;;;;;;;30.68;24.65;100002.94;5072912;28;19981;-70
2023/04/21 14:30:35;;;;;;;;;;;;;;;28.58;26.83;100003.00;5072955;28;19966;-69
2023/04/21 14:33:40;;;;;;;;;;;;;;;29.81;26.61;99998.31;5072889;28;19969;-69
2023/04/21 14:36:46;;;;;;;;;;;;;;;31.34;24.32;99990.56;5072807;28;20288;-70
2023/04/21 14:39:49;;;;;;;;;;;;;;;31.47;24.25;99987.66;5072702;28;19927;-69
2023/04/21 14:42:52;;;;;;;;;;;;;;;30.35;24.42;99982.53;5072705;28;19942;-72
2023/04/21 14:45:55;;;;;;;;;;;;;;;30.59;24.52;99976.25;5072932;28;19923;-71
2023/04/21 14:48:58;;;;;;;;;;;;;;;31.21;24.15;99975.31;5060631;28;19922;-69
2023/04/21 14:52:02;;;;;;;;;;;;;;;30.85;24.13;99973.50;5072771;28;19923;-71
2023/04/21 14:55:05;;;;;;;;;;;;;;;31.05;24.44;99971.38;5072668;28;19923;-71
2023/04/21 14:58:08;;;;;;;;;;;;;;;31.58;23.82;99967.94;5072616;28;20300;-67
2023/04/21 15:01:11;;;;;;;;;;;;;;;31.14;24.61;99967.28;5072529;28;19927;-71
2023/04/21 15:04:14;;;;;;;;;;;;;;;30.08;24.64;99963.03;5072668;28;19938;-70
2023/04/21 15:07:17;;;;;;;;;;;;;;;30.95;24.75;99954.88;5072533;28;20451;-71
2023/04/21 15:10:20;;;;;;;;;;;;;;;30.85;24.08;99955.41;5072626;28;20337;-68
2023/04/21 15:13:24;;;;;;;;;;;;;;;29.27;25.49;99953.91;5072872;28;19923;-68
2023/04/21 15:16:27;;;;;;;;;;;;;;;27.24;28.42;99953.72;5072603;28;20327;-69
2023/04/21 15:19:30;;;;;;;;;;;;;;;26.90;29.42;99951.97;5072387;28;20330;-68
2023/04/21 15:22:33;;;;;;;;;;;;;;;29.30;28.68;99942.69;5072401;28;19974;-69
2023/04/21 15:25:36;;;;;;;;;;;;;;;30.59;24.96;99934.94;5053317;28;20384;-71
2023/04/21 15:28:39;;;;;;;;;;;;;;;30.03;24.68;99933.25;5067892;28;19969;-70
2023/04/21 15:31:42;;;;;;;;;;;;;;;27.26;27.65;99934.75;5072103;28;19924;-70
2023/04/21 15:34:45;;;;;;;;;;;;;;;28.44;26.63;99925.03;5071893;28;19975;-70
2023/04/21 15:37:48;;;;;;;;;;;;;;;27.97;26.76;99926.97;5072002;28;19941;-71
2023/04/21 15:40:51;;;;;;;;;;;;;;;28.21;26.97;99911.22;5075456;28;19927;-70
2023/04/21 15:43:55;;;;;;;;;;;;;;;29.06;26.38;99908.44;5075591;28;20015;-71
2023/04/21 15:46:57;;;;;;;;;;;;;;;29.14;26.02;99911.72;5075463;28;19923;-70
2023/04/21 15:50:00;;;;;;;;;;;;;;;28.61;26.42;99905.75;5075092;28;19985;-71
2023/04/21 15:53:04;;;;;;;;;;;;;;;27.79;26.78;99907.94;5075145;28;19947;-70
2023/04/21 15:56:10;;;;;;;;;;;;;;;28.66;26.30;99903.25;5075038;28;19928;-71
2023/04/21 15:59:13;;;;;;;;;;;;;;;28.93;26.61;99894.00;5074885;28;20429;-71
2023/04/21 16:02:16;;;;;;;;;;;;;;;29.16;26.24;99889.94;5062437;28;20309;-70
2023/04/21 16:05:19;;;;;;;;;;;;;;;28.00;27.05;99888.09;5055064;28;19963;-70
2023/04/21 16:08:22;;;;;;;;;;;;;;;27.84;27.25;99875.09;5055027;28;19967;-71
2023/04/21 16:11:26;;;;;;;;;;;;;;;25.86;30.13;99876.91;5055067;28;19939;-70